sensor_id;sensor_type;location;lat;lon;timestamp;pressure;altitude;pressure_sealevel;temperature;humidity
84918;BME280;75182;51.736;5.318;2024-03-17T00:03:05;102393.06;;;15.65;51.32
84918;BME280;75182;51.736;5.318;2024-03-17T00:13:08;102386.72;;;15.63;51.50
84918;BME280;75182;51.736;5.318;2024-03-17T00:23:09;102379.50;;;15.62;51.33
84918;BME280;75182;51.736;5.318;2024-03-17T00:33:11;102365.03;;;15.60;51.16
84918;BME280;75182;51.736;5.318;2024-03-17T00:43:12;102375.81;;;15.59;50.91
84918;BME280;75182;51.736;5.318;2024-03-17T00:53:12;102371.31;;;15.56;51.45
84918;BME280;75182;51.736;5.318;2024-03-17T01:03:13;102364.03;;;15.54;51.27
84918;BME280;75182;51.736;5.318;2024-03-17T01:13:13;102360.44;;;15.53;50.84
84918;BME280;75182;51.736;5.318;2024-03-17T01:23:14;102333.38;;;15.52;50.63
84918;BME280;75182;51.736;5.318;2024-03-17T01:33:15;102327.97;;;15.49;49.95
84918;BME280;75182;51.736;5.318;2024-03-17T01:43:15;102317.09;;;15.46;50.25
84918;BME280;75182;51.736;5.318;2024-03-17T01:53:16;102300.78;;;15.38;50.55
84918;BME280;75182;51.736;5.318;2024-03-17T02:03:16;102302.63;;;15.40;50.50
84918;BME280;75182;51.736;5.318;2024-03-17T02:13:16;102298.09;;;15.38;50.58
84918;BME280;75182;51.736;5.318;2024-03-17T02:23:17;102290.88;;;15.38;50.33
84918;BME280;75182;51.736;5.318;2024-03-17T02:33:18;102290.84;;;15.35;50.73
84918;BME280;75182;51.736;5.318;2024-03-17T02:43:19;102281.84;;;15.33;50.73
84918;BME280;75182;51.736;5.318;2024-03-17T02:53:20;102265.63;;;15.33;50.96
84918;BME280;75182;51.736;5.318;2024-03-17T03:03:20;102263.78;;;15.31;51.19
84918;BME280;75182;51.736;5.318;2024-03-17T03:13:20;102272.75;;;15.30;51.20
84918;BME280;75182;51.736;5.318;2024-03-17T03:23:21;102266.44;;;15.28;50.68
84918;BME280;75182;51.736;5.318;2024-03-17T03:33:22;102253.84;;;15.27;51.02
84918;BME280;75182;51.736;5.318;2024-03-17T03:43:22;102256.53;;;15.27;50.55
84918;BME280;75182;51.736;5.318;2024-03-17T03:53:22;102231.31;;;15.25;50.94
84918;BME280;75182;51.736;5.318;2024-03-17T04:03:23;102214.16;;;15.23;50.62
84918;BME280;75182;51.736;5.318;2024-03-17T04:13:23;102191.63;;;15.21;50.16
84918;BME280;75182;51.736;5.318;2024-03-17T04:23:24;102196.09;;;15.17;50.60
84918;BME280;75182;51.736;5.318;2024-03-17T04:33:24;102190.63;;;15.14;50.78
84918;BME280;75182;51.736;5.318;2024-03-17T04:43:24;102188.84;;;15.14;50.10
84918;BME280;75182;51.736;5.318;2024-03-17T04:53:25;102183.41;;;15.10;50.53
84918;BME280;75182;51.736;5.318;2024-03-17T05:03:25;102178.91;;;15.10;50.29
84918;BME280;75182;51.736;5.318;2024-03-17T05:13:27;102174.38;;;15.08;50.69
84918;BME280;75182;51.736;5.318;2024-03-17T05:23:28;102180.72;;;15.10;49.68
84918;BME280;75182;51.736;5.318;2024-03-17T05:33:28;102177.94;;;15.05;51.00
84918;BME280;75182;51.736;5.318;2024-03-17T05:43:30;102169.81;;;15.04;50.90
84918;BME280;75182;51.736;5.318;2024-03-17T05:53:31;102166.22;;;15.03;50.03
84918;BME280;75182;51.736;5.318;2024-03-17T06:03:32;102177.91;;;15.01;51.32
84918;BME280;75182;51.736;5.318;2024-03-17T06:13:32;102188.72;;;15.01;51.33
84918;BME280;75182;51.736;5.318;2024-03-17T06:23:33;102186.91;;;15.00;51.43
84918;BME280;75182;51.736;5.318;2024-03-17T06:33:33;102186.91;;;15.00;51.26
84918;BME280;75182;51.736;5.318;2024-03-17T06:43:33;102178.78;;;15.00;50.83
84918;BME280;75182;51.736;5.318;2024-03-17T06:53:34;102178.75;;;14.97;50.63
84918;BME280;75182;51.736;5.318;2024-03-17T07:03:35;102179.63;;;14.96;50.01
84918;BME280;75182;51.736;5.318;2024-03-17T07:13:36;102170.59;;;14.92;49.98
84918;BME280;75182;51.736;5.318;2024-03-17T07:23:37;102167.91;;;14.92;50.16
84918;BME280;75182;51.736;5.318;2024-03-17T07:33:38;102154.38;;;14.91;50.07
84918;BME280;75182;51.736;5.318;2024-03-17T07:43:39;102155.25;;;14.90;50.61
84918;BME280;75182;51.736;5.318;2024-03-17T07:53:41;102164.25;;;14.90;51.71
84918;BME280;75182;51.736;5.318;2024-03-17T08:03:46;102156.13;;;14.89;51.06
84918;BME280;75182;51.736;5.318;2024-03-17T08:13:47;102166.09;;;14.93;51.15
84918;BME280;75182;51.736;5.318;2024-03-17T08:23:47;102169.72;;;14.95;51.18
84918;BME280;75182;51.736;5.318;2024-03-17T08:33:48;102170.63;;;14.94;51.53
84918;BME280;75182;51.736;5.318;2024-03-17T08:43:48;102168.84;;;14.96;51.39
84918;BME280;75182;51.736;5.318;2024-03-17T08:53:48;102163.50;;;14.99;50.65
84918;BME280;75182;51.736;5.318;2024-03-17T09:03:48;102158.03;;;14.96;50.91
84918;BME280;75182;51.736;5.318;2024-03-17T09:13:49;102145.41;;;14.95;50.74
84918;BME280;75182;51.736;5.318;2024-03-17T09:23:49;102148.13;;;14.95;51.72
84918;BME280;75182;51.736;5.318;2024-03-17T09:33:50;102138.25;;;14.97;51.49
84918;BME280;75182;51.736;5.318;2024-03-17T09:43:53;102122.97;;;14.99;50.79
84918;BME280;75182;51.736;5.318;2024-03-17T09:53:53;102111.31;;;15.03;51.03
84918;BME280;75182;51.736;5.318;2024-03-17T10:03:54;102124.81;;;15.03;51.50
84918;BME280;75182;51.736;5.318;2024-03-17T10:14:05;102123.03;;;15.05;52.08
84918;BME280;75182;51.736;5.318;2024-03-17T10:24:08;102117.69;;;15.09;51.73
84918;BME280;75182;51.736;5.318;2024-03-17T10:34:15;102117.69;;;15.12;51.89
84918;BME280;75182;51.736;5.318;2024-03-17T10:44:16;102101.50;;;15.14;52.50
84918;BME280;75182;51.736;5.318;2024-03-17T10:54:23;102092.53;;;15.15;52.68
84918;BME280;75182;51.736;5.318;2024-03-17T11:04:27;102093.47;;;15.22;52.47
84918;BME280;75182;51.736;5.318;2024-03-17T11:14:27;102093.53;;;15.23;52.76
84918;BME280;75182;51.736;5.318;2024-03-17T11:24:27;102096.25;;;15.31;52.75
84918;BME280;75182;51.736;5.318;2024-03-17T11:34:33;102081.91;;;15.32;52.95
84918;BME280;75182;51.736;5.318;2024-03-17T11:44:34;102079.28;;;15.42;52.96
84918;BME280;75182;51.736;5.318;2024-03-17T11:54:36;102077.47;;;15.45;52.72
84918;BME280;75182;51.736;5.318;2024-03-17T12:04:39;102066.72;;;15.48;52.96
84918;BME280;75182;51.736;5.318;2024-03-17T12:14:40;102051.47;;;15.56;52.61
84918;BME280;75182;51.736;5.318;2024-03-17T12:24:43;102039.75;;;15.57;52.87
84918;BME280;75182;51.736;5.318;2024-03-17T12:34:45;102035.25;;;15.60;52.77
84918;BME280;75182;51.736;5.318;2024-03-17T12:44:52;102018.22;;;15.66;52.75
84918;BME280;75182;51.736;5.318;2024-03-17T12:55:03;102008.31;;;15.69;52.73
84918;BME280;75182;51.736;5.318;2024-03-17T13:05:22;101994.84;;;15.74;52.69
84918;BME280;75182;51.736;5.318;2024-03-17T13:15:23;101989.44;;;15.74;52.93
84918;BME280;75182;51.736;5.318;2024-03-17T13:25:25;101972.31;;;15.77;53.06
84918;BME280;75182;51.736;5.318;2024-03-17T13:35:29;101955.19;;;15.79;52.82
84918;BME280;75182;51.736;5.318;2024-03-17T13:45:40;101948.94;;;15.86;52.88
84918;BME280;75182;51.736;5.318;2024-03-17T13:55:41;101927.31;;;15.88;53.25
84918;BME280;75182;51.736;5.318;2024-03-17T14:05:41;101911.09;;;15.94;52.95
84918;BME280;75182;51.736;5.318;2024-03-17T14:15:42;101901.19;;;15.96;53.24
84918;BME280;75182;51.736;5.318;2024-03-17T14:25:42;101888.59;;;16.00;53.34
84918;BME280;75182;51.736;5.318;2024-03-17T14:35:42;101879.59;;;16.07;53.04
84918;BME280;75182;51.736;5.318;2024-03-17T14:45:44;101866.09;;;16.07;53.13
84918;BME280;75182;51.736;5.318;2024-03-17T14:55:45;101856.16;;;16.09;52.91
84918;BME280;75182;51.736;5.318;2024-03-17T15:05:46;101838.13;;;16.17;52.83
84918;BME280;75182;51.736;5.318;2024-03-17T15:15:46;101832.72;;;16.20;53.08
84918;BME280;75182;51.736;5.318;2024-03-17T15:25:47;101826.41;;;16.18;53.52
84918;BME280;75182;51.736;5.318;2024-03-17T15:35:48;101817.38;;;16.20;53.23
84918;BME280;75182;51.736;5.318;2024-03-17T15:45:49;101811.09;;;16.26;53.42
84918;BME280;75182;51.736;5.318;2024-03-17T15:55:56;101799.38;;;16.27;53.08
84918;BME280;75182;51.736;5.318;2024-03-17T16:06:09;101795.78;;;16.30;53.29
84918;BME280;75182;51.736;5.318;2024-03-17T16:16:14;101782.25;;;16.33;53.29
84918;BME280;75182;51.736;5.318;2024-03-17T16:26:15;101784.03;;;16.37;53.33
84918;BME280;75182;51.736;5.318;2024-03-17T16:36:16;101777.72;;;16.39;53.31
84918;BME280;75182;51.736;5.318;2024-03-17T16:56:26;101769.59;;;16.48;53.57
84918;BME280;75182;51.736;5.318;2024-03-17T17:06:27;101784.03;;;16.53;54.34
84918;BME280;75182;51.736;5.318;2024-03-17T17:16:27;101780.41;;;16.53;54.65
84918;BME280;75182;51.736;5.318;2024-03-17T17:26:30;101777.69;;;16.53;54.35
84918;BME280;75182;51.736;5.318;2024-03-17T17:36:39;101771.41;;;16.54;54.24
84918;BME280;75182;51.736;5.318;2024-03-17T17:46:39;101771.41;;;16.56;54.32
84918;BME280;75182;51.736;5.318;2024-03-17T17:56:40;101775.00;;;16.58;54.93
84918;BME280;75182;51.736;5.318;2024-03-17T18:06:41;101771.41;;;16.56;54.79
84918;BME280;75182;51.736;5.318;2024-03-17T18:16:41;101753.38;;;16.47;54.83
84918;BME280;75182;51.736;5.318;2024-03-17T18:26:41;101764.19;;;16.54;54.85
84918;BME280;75182;51.736;5.318;2024-03-17T18:36:42;101765.09;;;16.55;55.04
84918;BME280;75182;51.736;5.318;2024-03-17T18:46:44;101756.97;;;16.57;54.46
84918;BME280;75182;51.736;5.318;2024-03-17T18:56:44;101759.66;;;16.60;55.16
84918;BME280;75182;51.736;5.318;2024-03-17T19:06:44;101752.44;;;16.59;55.05
84918;BME280;75182;51.736;5.318;2024-03-17T19:16:45;101753.34;;;16.58;54.99
84918;BME280;75182;51.736;5.318;2024-03-17T19:26:46;101755.16;;;16.59;54.46
84918;BME280;75182;51.736;5.318;2024-03-17T19:36:47;101743.41;;;16.60;55.11
84918;BME280;75182;51.736;5.318;2024-03-17T19:46:47;101741.59;;;16.59;55.25
84918;BME280;75182;51.736;5.318;2024-03-17T19:56:47;101730.78;;;16.60;55.61
84918;BME280;75182;51.736;5.318;2024-03-17T20:06:48;101724.47;;;16.57;55.51
84918;BME280;75182;51.736;5.318;2024-03-17T20:16:48;101735.31;;;16.57;55.58
84918;BME280;75182;51.736;5.318;2024-03-17T20:26:48;101719.06;;;16.57;55.84
84918;BME280;75182;51.736;5.318;2024-03-17T20:36:49;101705.53;;;16.52;56.21
84918;BME280;75182;51.736;5.318;2024-03-17T20:46:51;101703.72;;;16.51;55.76
84918;BME280;75182;51.736;5.318;2024-03-17T20:56:53;101687.50;;;16.48;55.26
84918;BME280;75182;51.736;5.318;2024-03-17T21:06:54;101681.19;;;16.47;56.01
84918;BME280;75182;51.736;5.318;2024-03-17T21:16:55;101683.88;;;16.49;55.96
84918;BME280;75182;51.736;5.318;2024-03-17T21:26:56;101683.00;;;16.45;56.01
84918;BME280;75182;51.736;5.318;2024-03-17T21:36:57;101668.56;;;16.45;56.94
84918;BME280;75182;51.736;5.318;2024-03-17T21:46:57;101664.97;;;16.41;56.18
84918;BME280;75182;51.736;5.318;2024-03-17T21:56:59;101655.06;;;16.37;55.72
84918;BME280;75182;51.736;5.318;2024-03-17T22:07:00;101651.44;;;16.41;56.60
84918;BME280;75182;51.736;5.318;2024-03-17T22:17:00;101642.41;;;16.44;57.37
84918;BME280;75182;51.736;5.318;2024-03-17T22:27:01;101657.75;;;16.40;56.03
84918;BME280;75182;51.736;5.318;2024-03-17T22:37:02;101646.94;;;16.40;55.89
84918;BME280;75182;51.736;5.318;2024-03-17T22:47:05;101645.13;;;16.39;56.57
84918;BME280;75182;51.736;5.318;2024-03-17T22:57:06;101614.47;;;16.40;56.08
84918;BME280;75182;51.736;5.318;2024-03-17T23:07:07;101617.19;;;16.37;56.41
84918;BME280;75182;51.736;5.318;2024-03-17T23:17:07;101619.88;;;16.37;56.05
84918;BME280;75182;51.736;5.318;2024-03-17T23:27:07;101620.78;;;16.38;56.16
84918;BME280;75182;51.736;5.318;2024-03-17T23:37:08;101615.38;;;16.38;57.67
84918;BME280;75182;51.736;5.318;2024-03-17T23:47:08;101609.06;;;16.37;56.73
84918;BME280;75182;51.736;5.318;2024-03-17T23:57:08;101609.06;;;16.34;56.58
